createdAt,value
2019-01-16T00:00:54.581Z,82.80
2019-01-16T00:01:54.558Z,83.01
2019-01-16T00:02:54.554Z,82.60
2019-01-16T00:03:54.541Z,82.18
2019-01-16T00:04:54.533Z,82.29
2019-01-16T00:05:54.529Z,82.39
2019-01-16T00:06:54.505Z,82.60
2019-01-16T00:07:54.501Z,82.08
2019-01-16T00:08:54.480Z,82.90
2019-01-16T00:09:54.471Z,82.56
2019-01-16T00:10:54.479Z,82.39
2019-01-16T00:11:54.452Z,82.39
2019-01-16T00:12:54.450Z,82.60
2019-01-16T00:13:54.434Z,82.29
2019-01-16T00:14:54.423Z,83.01
2019-01-16T00:15:54.432Z,82.29
2019-01-16T00:16:54.398Z,82.18
2019-01-16T00:17:54.384Z,82.50
2019-01-16T00:18:54.371Z,82.15
2019-01-16T00:19:54.364Z,82.80
2019-01-16T00:20:54.404Z,82.08
2019-01-16T00:21:54.344Z,82.39
2019-01-16T00:22:54.332Z,82.50
2019-01-16T00:23:54.326Z,83.22
2019-01-16T00:24:54.308Z,82.60
2019-01-16T00:25:54.344Z,82.08
2019-01-16T00:26:54.303Z,83.01
2019-01-16T00:27:54.275Z,83.11
2019-01-16T00:28:54.271Z,82.50
2019-01-16T00:29:54.265Z,82.29
2019-01-16T00:30:54.250Z,83.42
2019-01-16T00:31:54.267Z,82.97
2019-01-16T00:32:54.221Z,82.60
2019-01-16T00:33:54.231Z,82.60
2019-01-16T00:34:54.198Z,82.39
2019-01-16T00:35:54.186Z,82.60
2019-01-16T00:36:54.173Z,82.87
2019-01-16T00:37:54.164Z,82.35
2019-01-16T00:38:54.215Z,82.90
2019-01-16T00:39:54.169Z,82.45
2019-01-16T00:40:54.173Z,82.76
2019-01-16T00:41:54.120Z,82.87
2019-01-16T00:42:54.112Z,82.45
2019-01-16T00:43:54.116Z,82.87
2019-01-16T00:44:54.148Z,82.45
2019-01-16T00:45:54.105Z,83.22
2019-01-16T00:46:54.068Z,82.50
2019-01-16T00:47:54.058Z,82.35
2019-01-16T00:48:54.046Z,82.80
2019-01-16T00:49:54.040Z,83.01
2019-01-16T00:50:54.088Z,82.87
2019-01-16T00:51:54.401Z,82.87
2019-01-16T00:52:54.029Z,82.35
2019-01-16T00:53:53.996Z,82.08
2019-01-16T00:54:53.979Z,82.45
2019-01-16T00:55:53.998Z,82.76
2019-01-16T00:56:53.961Z,82.35
2019-01-16T00:57:53.961Z,82.35
2019-01-16T00:58:53.952Z,83.39
2019-01-16T00:59:53.933Z,82.97
2019-01-16T01:00:53.936Z,82.15
2019-01-16T01:01:53.928Z,82.45
2019-01-16T01:02:53.909Z,82.97
2019-01-16T01:03:53.930Z,82.25
2019-01-16T01:04:53.882Z,82.15
2019-01-16T01:05:53.871Z,82.08
2019-01-16T01:06:53.875Z,82.45
2019-01-16T01:07:53.856Z,82.45
2019-01-16T01:08:53.839Z,82.76
2019-01-16T01:09:53.820Z,82.97
2019-01-16T01:10:53.823Z,82.97
2019-01-16T01:11:53.842Z,82.15
2019-01-16T01:12:53.785Z,82.50
2019-01-16T01:13:53.779Z,82.97
2019-01-16T01:14:53.778Z,82.97
2019-01-16T01:15:53.755Z,82.04
2019-01-16T01:16:53.744Z,82.76
2019-01-16T01:17:53.751Z,82.25
2019-01-16T01:18:53.720Z,82.56
2019-01-16T01:19:53.714Z,82.25
2019-01-16T01:20:53.711Z,82.15
2019-01-16T01:21:53.693Z,82.45
2019-01-16T01:22:53.716Z,83.18
2019-01-16T01:23:53.673Z,82.80
2019-01-16T01:24:53.652Z,82.56
2019-01-16T01:25:53.658Z,82.45
2019-01-16T01:26:53.642Z,82.56
2019-01-16T01:27:53.656Z,82.97
2019-01-16T01:28:54.382Z,82.87
2019-01-16T01:29:53.606Z,83.18
2019-01-16T01:30:53.592Z,82.45
2019-01-16T01:31:53.583Z,82.15
2019-01-16T01:32:53.567Z,82.35
2019-01-16T01:33:53.577Z,82.56
2019-01-16T01:34:53.549Z,82.35
2019-01-16T01:35:53.557Z,82.04
2019-01-16T01:36:55.345Z,82.04
2019-01-16T01:37:53.511Z,83.07
2019-01-16T01:38:53.528Z,82.45
2019-01-16T01:39:53.494Z,82.15
2019-01-16T01:40:53.486Z,83.18
2019-01-16T01:41:53.475Z,82.35
2019-01-16T01:42:53.477Z,82.35
2019-01-16T01:43:53.480Z,82.76
2019-01-16T01:44:53.450Z,82.15
2019-01-16T01:45:53.427Z,82.35
2019-01-16T01:46:53.420Z,82.62
2019-01-16T01:47:53.408Z,81.94
2019-01-16T01:48:53.443Z,82.35
2019-01-16T01:49:53.405Z,82.76
2019-01-16T01:50:53.375Z,82.25
2019-01-16T01:51:53.423Z,82.04
2019-01-16T01:52:53.359Z,82.15
2019-01-16T01:53:53.343Z,82.35
2019-01-16T01:54:53.349Z,82.31
2019-01-16T01:55:53.328Z,82.35
2019-01-16T01:56:53.308Z,82.97
2019-01-16T01:57:53.299Z,83.04
2019-01-16T01:58:53.294Z,81.70
2019-01-16T01:59:53.303Z,81.84
2019-01-16T02:00:53.273Z,81.52
2019-01-16T02:01:53.280Z,81.73
2019-01-16T02:02:53.239Z,81.42
2019-01-16T02:03:53.247Z,81.70
2019-01-16T02:04:53.247Z,82.56
2019-01-16T02:05:53.239Z,81.38
2019-01-16T02:06:53.230Z,81.73
2019-01-16T02:07:54.732Z,81.52
2019-01-16T02:08:53.177Z,81.84
2019-01-16T02:09:53.208Z,81.42
2019-01-16T02:10:53.179Z,82.35
2019-01-16T02:11:53.143Z,81.84
2019-01-16T02:12:53.146Z,81.52
2019-01-16T02:13:53.133Z,82.35
2019-01-16T02:14:53.109Z,81.52
2019-01-16T02:15:53.141Z,82.04
2019-01-16T02:16:53.103Z,81.94
2019-01-16T02:17:53.086Z,82.25
2019-01-16T02:18:53.089Z,81.73
2019-01-16T02:19:53.070Z,81.52
2019-01-16T02:20:53.051Z,81.90
2019-01-16T02:21:53.060Z,81.59
2019-01-16T02:22:53.028Z,81.59
2019-01-16T02:23:53.023Z,81.94
2019-01-16T02:24:53.001Z,81.63
2019-01-16T02:25:52.992Z,81.73
2019-01-16T02:26:53.017Z,81.94
2019-01-16T02:27:52.974Z,81.42
2019-01-16T02:28:52.970Z,81.84
2019-01-16T02:29:52.951Z,81.84
2019-01-16T02:30:52.979Z,81.94
2019-01-16T02:31:52.999Z,81.52
2019-01-16T02:32:52.916Z,83.07
2019-01-16T02:33:52.914Z,82.45
2019-01-16T02:34:52.903Z,82.25
2019-01-16T02:35:52.925Z,81.59
2019-01-16T02:36:52.888Z,82.45
2019-01-16T02:37:52.907Z,82.35
2019-01-16T02:38:52.860Z,82.15
2019-01-16T02:39:52.850Z,82.15
2019-01-16T02:40:52.837Z,81.73
2019-01-16T02:41:52.816Z,81.52
2019-01-16T02:42:52.843Z,82.04
2019-01-16T02:43:52.806Z,82.15
2019-01-16T02:44:52.786Z,82.04
2019-01-16T02:45:52.788Z,81.63
2019-01-16T02:46:52.805Z,81.84
2019-01-16T02:47:52.781Z,82.25
2019-01-16T02:48:56.111Z,82.97
2019-01-16T02:49:52.734Z,81.94
2019-01-16T02:50:52.729Z,81.52
2019-01-16T02:51:52.734Z,81.73
2019-01-16T02:52:52.731Z,81.73
2019-01-16T02:53:52.689Z,81.52
2019-01-16T02:54:52.679Z,81.63
2019-01-16T02:55:52.666Z,81.01
2019-01-16T02:56:52.670Z,81.73
2019-01-16T02:57:52.692Z,82.25
2019-01-16T02:58:52.638Z,82.15
2019-01-16T02:59:52.625Z,81.94
2019-01-16T03:00:52.646Z,81.52
2019-01-16T03:01:52.600Z,81.52
2019-01-16T03:02:52.597Z,82.25
2019-01-16T03:03:52.597Z,81.67
2019-01-16T03:04:52.568Z,81.73
2019-01-16T03:05:52.581Z,81.94
2019-01-16T03:06:52.563Z,82.25
2019-01-16T03:07:52.540Z,81.73
2019-01-16T03:08:52.572Z,81.52
2019-01-16T03:09:52.530Z,82.35
2019-01-16T03:10:52.509Z,82.35
2019-01-16T03:11:52.517Z,81.73
2019-01-16T03:12:52.495Z,80.70
2019-01-16T03:13:52.497Z,81.63
2019-01-16T03:14:52.468Z,81.52
2019-01-16T03:15:52.447Z,81.21
2019-01-16T03:16:52.445Z,81.21
2019-01-16T03:17:52.475Z,81.21
2019-01-16T03:18:52.443Z,81.52
2019-01-16T03:19:52.405Z,80.90
2019-01-16T03:20:52.400Z,81.52
2019-01-16T03:21:52.396Z,81.42
2019-01-16T03:22:52.372Z,81.42
2019-01-16T03:23:52.386Z,81.01
2019-01-16T03:24:52.379Z,81.11
2019-01-16T03:25:52.341Z,81.77
2019-01-16T03:26:52.330Z,81.35
2019-01-16T03:27:52.322Z,81.15
2019-01-16T03:28:52.310Z,81.21
2019-01-16T03:29:52.314Z,81.11
2019-01-16T03:30:52.295Z,81.05
2019-01-16T03:31:52.290Z,81.05
2019-01-16T03:32:52.284Z,81.25
2019-01-16T03:33:52.251Z,81.11
2019-01-16T03:34:52.325Z,81.11
2019-01-16T03:35:52.243Z,81.56
2019-01-16T03:36:52.225Z,81.52
2019-01-16T03:37:52.210Z,81.32
2019-01-16T03:38:52.209Z,81.25
2019-01-16T03:39:52.212Z,81.01
2019-01-16T03:40:52.207Z,81.52
2019-01-16T03:41:52.180Z,81.32
2019-01-16T03:42:52.158Z,81.25
2019-01-16T03:43:52.144Z,80.80
2019-01-16T03:44:52.143Z,81.01
2019-01-16T03:45:52.152Z,81.11
2019-01-16T03:46:52.117Z,81.11
2019-01-16T03:47:52.109Z,81.32
2019-01-16T03:48:52.095Z,81.05
2019-01-16T03:49:52.078Z,81.15
2019-01-16T03:50:52.115Z,81.63
2019-01-16T03:51:52.055Z,81.11
2019-01-16T03:52:52.061Z,80.80
2019-01-16T03:53:52.036Z,80.39
2019-01-16T03:54:52.034Z,81.11
2019-01-16T03:55:52.017Z,81.52
2019-01-16T03:56:52.027Z,80.32
2019-01-16T03:57:51.996Z,80.60
2019-01-16T03:58:51.986Z,80.49
2019-01-16T03:59:51.970Z,80.11
2019-01-16T04:00:51.961Z,80.32
2019-01-16T04:01:51.977Z,80.22
2019-01-16T04:02:51.953Z,80.32
2019-01-16T04:03:51.930Z,80.32
2019-01-16T04:04:51.991Z,81.05
2019-01-16T04:05:51.908Z,80.94
2019-01-16T04:06:51.919Z,80.32
2019-01-16T04:07:51.892Z,80.11
2019-01-16T04:08:51.873Z,80.22
2019-01-16T04:09:51.864Z,80.32
2019-01-16T04:10:51.860Z,80.53
2019-01-16T04:11:51.841Z,80.22
2019-01-16T04:12:51.848Z,80.22
2019-01-16T04:13:51.840Z,80.32
2019-01-16T04:14:51.812Z,80.22
2019-01-16T04:15:51.802Z,80.22
2019-01-16T04:16:51.782Z,80.22
2019-01-16T04:17:51.806Z,80.26
2019-01-16T04:18:51.778Z,80.36
2019-01-16T04:19:51.766Z,80.46
2019-01-16T04:20:51.747Z,80.36
2019-01-16T04:21:51.734Z,80.36
2019-01-16T04:22:51.755Z,80.05
2019-01-16T04:23:51.718Z,80.15
2019-01-16T04:24:51.708Z,79.74
2019-01-16T04:25:51.713Z,80.46
2019-01-16T04:26:51.681Z,79.70
2019-01-16T04:27:51.693Z,80.11
2019-01-16T04:28:51.680Z,80.43
2019-01-16T04:29:51.642Z,80.43
2019-01-16T04:30:51.632Z,80.01
2019-01-16T04:31:51.633Z,80.11
2019-01-16T04:32:51.614Z,80.43
2019-01-16T04:33:51.659Z,80.26
2019-01-16T04:34:51.595Z,79.91
2019-01-16T04:35:51.579Z,79.91
2019-01-16T04:36:51.571Z,80.22
2019-01-16T04:37:51.553Z,80.11
2019-01-16T04:38:51.582Z,80.32
2019-01-16T04:39:51.537Z,80.11
2019-01-16T04:40:51.525Z,79.49
2019-01-16T04:41:51.513Z,80.11
2019-01-16T04:42:51.502Z,79.70
2019-01-16T04:43:51.521Z,79.60
2019-01-16T04:44:51.524Z,79.29
2019-01-16T04:45:51.470Z,79.39
2019-01-16T04:46:51.457Z,79.49
2019-01-16T04:47:51.464Z,79.49
2019-01-16T04:48:51.441Z,79.56
2019-01-16T04:49:51.446Z,79.60
2019-01-16T04:50:51.413Z,79.60
2019-01-16T04:51:51.406Z,79.49
2019-01-16T04:52:51.417Z,79.49
2019-01-16T04:53:51.386Z,80.11
2019-01-16T04:54:51.390Z,80.11
2019-01-16T04:55:51.386Z,80.11
2019-01-16T04:56:51.358Z,80.32
2019-01-16T04:57:51.338Z,79.80
2019-01-16T04:58:51.335Z,79.91
2019-01-16T04:59:51.389Z,80.11
2019-01-16T05:00:51.308Z,80.11
2019-01-16T05:01:51.302Z,79.91
2019-01-16T05:02:51.295Z,79.70
2019-01-16T05:03:51.287Z,79.46
2019-01-16T05:04:51.266Z,79.08
2019-01-16T05:05:51.268Z,78.98
2019-01-16T05:06:51.250Z,78.98
2019-01-16T05:07:51.226Z,79.91
2019-01-16T05:08:51.218Z,79.70
2019-01-16T05:09:51.231Z,79.66
2019-01-16T05:10:51.226Z,79.46
2019-01-16T05:11:51.192Z,79.15
2019-01-16T05:12:51.181Z,79.36
2019-01-16T05:13:51.162Z,78.94
2019-01-16T05:14:51.163Z,79.25
2019-01-16T05:15:51.176Z,79.49
2019-01-16T05:16:51.185Z,80.32
2019-01-16T05:17:51.141Z,78.98
2019-01-16T05:18:51.111Z,78.98
2019-01-16T05:19:51.101Z,80.32
2019-01-16T05:20:51.102Z,80.11
2019-01-16T05:21:51.104Z,80.43
2019-01-16T05:22:51.068Z,80.63
2019-01-16T05:23:51.070Z,80.84
2019-01-16T05:24:51.049Z,81.15
2019-01-16T05:25:51.035Z,81.67
2019-01-16T05:26:51.049Z,81.77
2019-01-16T05:27:51.025Z,81.98
2019-01-16T05:28:51.011Z,81.98
2019-01-16T05:29:51.001Z,82.60
2019-01-16T05:30:50.979Z,83.22
2019-01-16T05:31:50.996Z,82.60
2019-01-16T05:32:50.958Z,82.90
2019-01-16T05:33:50.944Z,83.32
2019-01-16T05:34:50.954Z,82.60
2019-01-16T05:35:50.955Z,82.60
2019-01-16T05:36:50.912Z,83.53
2019-01-16T05:37:50.921Z,83.42
2019-01-16T05:38:50.910Z,84.05
2019-01-16T05:39:50.891Z,84.45
2019-01-16T05:40:50.895Z,84.25
2019-01-16T05:41:50.866Z,84.50
2019-01-16T05:42:50.869Z,84.87
2019-01-16T05:43:50.836Z,85.02
2019-01-16T05:44:50.842Z,84.91
2019-01-16T05:45:50.822Z,84.50
2019-01-16T05:46:50.811Z,84.81
2019-01-16T05:47:50.841Z,85.02
2019-01-16T05:48:50.787Z,84.70
2019-01-16T05:49:50.777Z,85.11
2019-01-16T05:50:50.769Z,85.22
2019-01-16T05:51:50.756Z,84.29
2019-01-16T05:52:50.764Z,84.81
2019-01-16T05:53:50.754Z,84.91
2019-01-16T05:54:50.719Z,85.02
2019-01-16T05:55:50.711Z,85.49
2019-01-16T05:56:50.692Z,85.22
2019-01-16T05:57:50.686Z,85.32
2019-01-16T05:58:50.688Z,85.28
2019-01-16T05:59:50.670Z,85.39
2019-01-16T06:00:50.721Z,84.91
2019-01-16T06:01:50.642Z,84.70
2019-01-16T06:02:50.631Z,84.66
2019-01-16T06:03:50.628Z,84.77
2019-01-16T06:04:50.630Z,84.77
2019-01-16T06:05:50.617Z,84.66
2019-01-16T06:06:50.591Z,84.25
2019-01-16T06:07:50.609Z,84.77
2019-01-16T06:08:50.565Z,84.56
2019-01-16T06:09:50.554Z,84.08
2019-01-16T06:10:50.573Z,85.02
2019-01-16T06:11:50.531Z,84.81
2019-01-16T06:12:50.525Z,84.81
2019-01-16T06:13:50.517Z,84.91
2019-01-16T06:14:50.504Z,85.11
2019-01-16T06:15:50.485Z,84.81
2019-01-16T06:16:50.506Z,84.81
2019-01-16T06:17:50.468Z,84.81
2019-01-16T06:18:50.461Z,84.81
2019-01-16T06:19:54.176Z,84.91
2019-01-16T06:20:50.432Z,84.81
2019-01-16T06:21:50.443Z,84.91
2019-01-16T06:22:50.418Z,84.70
2019-01-16T06:23:50.399Z,84.70
2019-01-16T06:24:50.396Z,84.77
2019-01-16T06:25:50.384Z,84.66
2019-01-16T06:26:50.442Z,84.70
2019-01-16T06:27:50.371Z,85.02
2019-01-16T06:28:50.352Z,85.22
2019-01-16T06:29:50.344Z,84.91
2019-01-16T06:30:50.351Z,85.02
2019-01-16T06:31:50.339Z,84.70
2019-01-16T06:32:50.328Z,84.66
2019-01-16T06:33:50.294Z,84.81
2019-01-16T06:34:50.295Z,85.11
2019-01-16T06:35:50.281Z,84.91
2019-01-16T06:36:50.271Z,85.02
2019-01-16T06:37:50.282Z,85.02
2019-01-16T06:38:50.247Z,84.66
2019-01-16T06:39:50.226Z,84.56
2019-01-16T06:40:50.212Z,84.56
2019-01-16T06:41:50.205Z,84.87
2019-01-16T06:42:50.257Z,84.45
2019-01-16T06:43:50.205Z,84.36
2019-01-16T06:44:50.177Z,84.05
2019-01-16T06:45:50.167Z,84.45
2019-01-16T06:46:50.154Z,84.77
2019-01-16T06:47:50.139Z,84.05
2019-01-16T06:48:50.153Z,84.60
2019-01-16T06:49:50.130Z,84.36
2019-01-16T06:50:50.109Z,84.70
2019-01-16T06:51:50.095Z,84.05
2019-01-16T06:52:50.086Z,84.39
2019-01-16T06:53:50.095Z,84.39
2019-01-16T06:54:50.069Z,85.08
2019-01-16T06:55:50.058Z,84.50
2019-01-16T06:56:50.059Z,84.81
2019-01-16T06:57:50.036Z,84.39
2019-01-16T06:58:50.050Z,84.39
2019-01-16T06:59:50.011Z,84.45
2019-01-16T07:00:50.031Z,84.66
2019-01-16T07:01:50.011Z,83.84
2019-01-16T07:02:49.998Z,84.45
2019-01-16T07:03:50.007Z,84.39
2019-01-16T07:04:49.966Z,85.02
2019-01-16T07:05:49.952Z,84.70
2019-01-16T07:06:49.973Z,84.91
2019-01-16T07:07:50.004Z,84.70
2019-01-16T07:08:49.935Z,84.91
2019-01-16T07:09:49.911Z,84.77
2019-01-16T07:10:49.902Z,84.70
2019-01-16T07:11:49.922Z,85.08
2019-01-16T07:12:49.866Z,85.28
2019-01-16T07:13:49.881Z,85.49
2019-01-16T07:14:49.879Z,84.91
2019-01-16T07:15:49.831Z,85.32
2019-01-16T07:16:49.822Z,85.42
2019-01-16T07:17:49.821Z,85.94
2019-01-16T07:18:49.848Z,85.74
2019-01-16T07:19:49.793Z,85.39
2019-01-16T07:20:49.783Z,85.63
2019-01-16T07:21:49.831Z,85.91
2019-01-16T07:22:49.769Z,85.49
2019-01-16T07:23:49.781Z,85.11
2019-01-16T07:24:49.770Z,85.28
2019-01-16T07:25:49.731Z,85.49
2019-01-16T07:26:49.715Z,85.53
2019-01-16T07:27:49.716Z,85.28
2019-01-16T07:28:49.737Z,85.80
2019-01-16T07:29:49.696Z,86.32
2019-01-16T07:30:49.719Z,86.11
2019-01-16T07:31:49.662Z,85.70
2019-01-16T07:32:49.655Z,86.52
2019-01-16T07:33:49.654Z,86.01
2019-01-16T07:34:49.657Z,86.42
2019-01-16T07:35:49.621Z,85.80
2019-01-16T07:36:49.613Z,85.84
2019-01-16T07:37:49.600Z,85.70
2019-01-16T07:38:49.581Z,86.52
2019-01-16T07:39:49.598Z,86.52
2019-01-16T07:40:49.562Z,86.32
2019-01-16T07:41:49.571Z,86.21
2019-01-16T07:42:49.700Z,86.83
2019-01-16T07:43:49.529Z,85.63
2019-01-16T07:44:49.557Z,85.02
2019-01-16T07:45:49.505Z,85.39
2019-01-16T07:46:49.503Z,85.63
2019-01-16T07:47:49.500Z,85.39
2019-01-16T07:48:49.482Z,85.70
2019-01-16T07:49:49.490Z,85.11
2019-01-16T07:50:49.459Z,85.18
2019-01-16T07:51:49.447Z,85.49
2019-01-16T07:52:49.449Z,85.49
2019-01-16T07:53:49.426Z,85.18
2019-01-16T07:54:49.433Z,84.77
2019-01-16T07:55:49.401Z,84.77
2019-01-16T07:56:49.399Z,84.66
2019-01-16T07:57:49.382Z,84.45
2019-01-16T07:58:49.398Z,84.56
2019-01-16T07:59:49.404Z,84.36
2019-01-16T08:00:49.348Z,84.97
2019-01-16T08:01:49.345Z,84.87
2019-01-16T08:02:49.330Z,83.84
2019-01-16T08:03:49.325Z,83.42
2019-01-16T08:04:49.309Z,82.90
2019-01-16T08:05:49.316Z,83.22
2019-01-16T08:06:49.278Z,84.15
2019-01-16T08:07:49.274Z,84.66
2019-01-16T08:08:49.291Z,82.39
2019-01-16T08:09:49.246Z,83.01
2019-01-16T08:10:49.289Z,82.90
2019-01-16T08:11:49.264Z,82.50
2019-01-16T08:12:49.244Z,82.80
2019-01-16T08:13:49.202Z,82.29
2019-01-16T08:14:49.214Z,82.45
2019-01-16T08:15:49.200Z,82.70
2019-01-16T08:16:49.176Z,82.29
2019-01-16T08:17:49.189Z,82.29
2019-01-16T08:18:49.149Z,82.90
2019-01-16T08:19:49.139Z,82.29
2019-01-16T08:20:49.164Z,82.15
2019-01-16T08:21:49.117Z,82.56
2019-01-16T08:22:49.112Z,81.05
2019-01-16T08:23:49.114Z,81.56
2019-01-16T08:24:49.091Z,81.77
2019-01-16T08:25:49.095Z,82.25
2019-01-16T08:26:49.067Z,81.73
2019-01-16T08:27:49.070Z,80.80
2019-01-16T08:28:49.050Z,81.15
2019-01-16T08:29:49.040Z,81.63
2019-01-16T08:30:49.054Z,81.56
2019-01-16T08:31:49.006Z,81.01
2019-01-16T08:32:48.995Z,82.08
2019-01-16T08:33:48.985Z,81.15
2019-01-16T08:34:48.998Z,81.63
2019-01-16T08:35:48.968Z,81.52
2019-01-16T08:36:48.968Z,81.67
2019-01-16T08:37:48.947Z,81.63
2019-01-16T08:38:48.929Z,81.21
2019-01-16T08:39:48.933Z,81.52
2019-01-16T08:40:48.934Z,81.73
2019-01-16T08:41:48.924Z,80.90
2019-01-16T08:42:48.885Z,81.01
2019-01-16T08:43:48.884Z,81.73
2019-01-16T08:44:48.870Z,81.21
2019-01-16T08:45:48.865Z,81.42
2019-01-16T08:46:48.890Z,81.01
2019-01-16T08:47:48.834Z,81.21
2019-01-16T08:48:48.829Z,81.52
2019-01-16T08:49:48.810Z,81.01
2019-01-16T08:50:48.814Z,81.49
2019-01-16T08:51:48.786Z,80.15
2019-01-16T08:52:48.794Z,81.32
2019-01-16T08:53:48.771Z,81.18
2019-01-16T08:54:48.754Z,80.97
2019-01-16T08:55:48.763Z,81.52
2019-01-16T08:56:48.746Z,81.59
2019-01-16T08:57:48.758Z,80.15
2019-01-16T08:58:48.737Z,80.15
2019-01-16T08:59:48.715Z,80.15
2019-01-16T09:00:48.693Z,80.15
2019-01-16T09:01:48.680Z,80.29
2019-01-16T09:02:48.672Z,80.25
2019-01-16T09:03:48.683Z,80.15
2019-01-16T09:04:48.647Z,80.15
2019-01-16T09:05:48.660Z,80.25
2019-01-16T09:06:48.631Z,80.15
2019-01-16T09:07:48.626Z,80.04
2019-01-16T09:08:48.636Z,80.76
2019-01-16T09:09:48.605Z,80.25
2019-01-16T09:10:48.591Z,80.25
2019-01-16T09:11:48.597Z,80.25
2019-01-16T09:12:48.565Z,80.15
2019-01-16T09:13:48.623Z,80.04
2019-01-16T09:14:48.545Z,80.04
2019-01-16T09:15:48.539Z,80.25
2019-01-16T09:16:48.544Z,80.25
2019-01-16T09:17:48.512Z,80.15
2019-01-16T09:18:48.555Z,80.35
2019-01-16T09:19:48.496Z,80.15
2019-01-16T09:20:48.501Z,80.25
2019-01-16T09:21:48.496Z,80.04
2019-01-16T09:22:48.450Z,79.94
2019-01-16T09:23:48.448Z,79.73
2019-01-16T09:24:48.450Z,80.56
2019-01-16T09:25:48.429Z,79.83
2019-01-16T09:26:48.418Z,79.94
2019-01-16T09:27:48.402Z,79.94
2019-01-16T09:28:48.401Z,79.94
2019-01-16T09:29:48.402Z,80.04
2019-01-16T09:30:48.363Z,80.25
2019-01-16T09:31:48.368Z,80.21
2019-01-16T09:32:48.343Z,80.04
2019-01-16T09:33:48.334Z,80.04
2019-01-16T09:34:48.366Z,80.15
2019-01-16T09:35:48.319Z,80.25
2019-01-16T09:36:48.333Z,79.73
2019-01-16T09:37:48.319Z,79.52
2019-01-16T09:38:48.352Z,79.01
2019-01-16T09:39:48.270Z,79.42
2019-01-16T09:40:48.255Z,79.80
2019-01-16T09:41:48.251Z,80.00
2019-01-16T09:42:48.252Z,80.04
2019-01-16T09:43:48.230Z,79.90
2019-01-16T09:44:48.237Z,79.52
2019-01-16T09:45:48.205Z,79.80
2019-01-16T09:46:48.202Z,80.15
2019-01-16T09:47:48.198Z,79.69
2019-01-16T09:48:48.173Z,79.59
2019-01-16T09:49:48.189Z,79.38
2019-01-16T09:50:48.232Z,79.38
2019-01-16T09:51:48.147Z,79.49
2019-01-16T09:52:48.171Z,79.49
2019-01-16T09:53:48.125Z,79.49
2019-01-16T09:54:48.124Z,78.77
2019-01-16T09:55:48.093Z,79.28
2019-01-16T09:56:48.093Z,78.25
2019-01-16T09:57:48.094Z,78.77
2019-01-16T09:58:48.089Z,79.38
2019-01-16T09:59:48.057Z,79.49
2019-01-16T10:00:48.045Z,78.97
2019-01-16T10:01:48.065Z,78.66
2019-01-16T10:02:48.045Z,78.35
2019-01-16T10:03:48.021Z,78.05
2019-01-16T10:04:48.000Z,79.18
2019-01-16T10:05:47.997Z,78.97
2019-01-16T10:06:48.002Z,78.87
2019-01-16T10:07:48.047Z,79.04
2019-01-16T10:08:47.959Z,78.56
2019-01-16T10:09:47.945Z,78.18
2019-01-16T10:10:47.938Z,78.83
2019-01-16T10:11:47.924Z,78.77
2019-01-16T10:12:47.939Z,78.94
2019-01-16T10:13:47.901Z,78.87
2019-01-16T10:14:47.893Z,78.66
2019-01-16T10:15:47.903Z,78.52
2019-01-16T10:16:47.868Z,78.77
2019-01-16T10:17:47.862Z,77.63
2019-01-16T10:18:47.870Z,78.05
2019-01-16T10:19:47.832Z,77.73
2019-01-16T10:20:47.821Z,78.25
2019-01-16T10:21:47.810Z,78.56
2019-01-16T10:22:47.878Z,78.25
2019-01-16T10:23:48.755Z,78.11
2019-01-16T10:24:47.789Z,77.84
2019-01-16T10:25:47.774Z,78.25
2019-01-16T10:26:47.771Z,77.32
2019-01-16T10:27:47.747Z,78.45
2019-01-16T10:28:47.797Z,78.45
2019-01-16T10:29:47.732Z,78.14
2019-01-16T10:30:47.729Z,77.73
2019-01-16T10:31:47.711Z,78.05
2019-01-16T10:32:47.707Z,78.56
2019-01-16T10:33:47.685Z,77.91
2019-01-16T10:34:47.690Z,77.91
2019-01-16T10:35:47.664Z,78.52
2019-01-16T10:36:47.653Z,77.80
2019-01-16T10:37:47.643Z,78.31
2019-01-16T10:38:47.652Z,78.11
2019-01-16T10:39:47.643Z,77.53
2019-01-16T10:40:47.611Z,78.14
2019-01-16T10:41:47.606Z,77.11
2019-01-16T10:42:47.583Z,77.73
2019-01-16T10:43:47.590Z,77.53
2019-01-16T10:44:48.821Z,78.14
2019-01-16T10:45:47.549Z,78.11
2019-01-16T10:46:47.565Z,78.05
2019-01-16T10:47:47.586Z,78.52
2019-01-16T10:48:49.779Z,77.49
2019-01-16T10:49:47.525Z,77.70
2019-01-16T10:50:47.525Z,77.70
2019-01-16T10:51:47.490Z,77.80
2019-01-16T10:52:47.495Z,77.70
2019-01-16T10:53:47.461Z,77.08
2019-01-16T10:54:47.457Z,77.91
2019-01-16T10:55:47.464Z,77.28
2019-01-16T10:56:47.438Z,77.59
2019-01-16T10:57:47.424Z,77.80
2019-01-16T10:58:47.410Z,77.80
2019-01-16T10:59:47.420Z,77.28
2019-01-16T11:00:47.426Z,76.77
2019-01-16T11:01:47.376Z,77.49
2019-01-16T11:02:47.366Z,78.21
2019-01-16T11:03:47.415Z,77.80
2019-01-16T11:04:47.364Z,78.01
2019-01-16T11:05:47.333Z,77.18
2019-01-16T11:06:47.327Z,77.59
2019-01-16T11:07:47.313Z,76.46
2019-01-16T11:08:47.299Z,77.49
2019-01-16T11:09:47.322Z,77.08
2019-01-16T11:10:47.298Z,77.49
2019-01-16T11:11:47.270Z,77.08
2019-01-16T11:12:47.263Z,77.59
2019-01-16T11:13:47.267Z,77.28
2019-01-16T11:14:47.255Z,76.46
2019-01-16T11:15:47.260Z,76.77
2019-01-16T11:16:47.217Z,76.77
2019-01-16T11:17:47.203Z,76.12
2019-01-16T11:18:47.211Z,76.53
2019-01-16T11:19:47.222Z,76.42
2019-01-16T11:20:47.173Z,77.04
2019-01-16T11:21:47.167Z,75.95
2019-01-16T11:22:47.149Z,76.12
2019-01-16T11:23:47.139Z,76.53
2019-01-16T11:24:47.129Z,76.77
2019-01-16T11:25:47.153Z,76.77
2019-01-16T11:26:47.108Z,76.94
2019-01-16T11:27:47.088Z,76.21
2019-01-16T11:28:47.077Z,76.32
2019-01-16T11:29:47.073Z,77.15
2019-01-16T11:30:47.094Z,75.81
2019-01-16T11:31:47.063Z,76.42
2019-01-16T11:32:47.040Z,77.04
2019-01-16T11:33:47.032Z,76.53
2019-01-16T11:34:47.012Z,76.01
2019-01-16T11:35:47.057Z,76.01
2019-01-16T11:36:46.996Z,76.01
2019-01-16T11:37:47.021Z,75.81
2019-01-16T11:38:46.973Z,76.12
2019-01-16T11:39:46.996Z,76.12
2019-01-16T11:40:46.947Z,76.12
2019-01-16T11:41:46.939Z,76.01
2019-01-16T11:42:46.938Z,76.01
2019-01-16T11:43:46.916Z,76.21
2019-01-16T11:44:46.945Z,74.67
2019-01-16T11:45:46.922Z,74.43
2019-01-16T11:46:46.880Z,74.53
2019-01-16T11:47:46.888Z,75.15
2019-01-16T11:48:46.940Z,74.98
2019-01-16T11:49:46.853Z,75.09
2019-01-16T11:50:46.865Z,74.53
2019-01-16T11:51:46.832Z,74.57
2019-01-16T11:52:46.819Z,74.63
2019-01-16T11:53:46.824Z,74.33
2019-01-16T11:54:46.795Z,74.67
2019-01-16T11:55:46.802Z,74.43
2019-01-16T11:56:46.798Z,74.12
2019-01-16T11:57:46.764Z,74.84
2019-01-16T11:58:46.753Z,74.12
2019-01-16T11:59:46.764Z,74.63
2019-01-16T12:00:46.763Z,74.95
2019-01-16T12:01:46.722Z,74.53
2019-01-16T12:02:46.705Z,74.33
2019-01-16T12:03:46.738Z,74.53
2019-01-16T12:04:46.683Z,74.84
2019-01-16T12:05:46.707Z,74.22
2019-01-16T12:06:46.663Z,74.12
2019-01-16T12:07:46.667Z,74.12
2019-01-16T12:08:46.670Z,75.15
2019-01-16T12:09:46.625Z,73.19
2019-01-16T12:10:46.821Z,73.74
2019-01-16T12:11:46.628Z,73.91
2019-01-16T12:12:46.604Z,74.43
2019-01-16T12:13:46.589Z,74.12
2019-01-16T12:14:46.579Z,74.22
2019-01-16T12:15:46.574Z,74.12
2019-01-16T12:16:46.570Z,74.12
2019-01-16T12:17:46.536Z,73.60
2019-01-16T12:18:46.559Z,74.22
2019-01-16T12:19:46.529Z,72.88
2019-01-16T12:20:46.508Z,73.71
2019-01-16T12:21:46.518Z,74.02
2019-01-16T12:22:46.493Z,74.33
2019-01-16T12:23:46.475Z,73.91
2019-01-16T12:24:46.476Z,72.88
2019-01-16T12:25:46.466Z,74.33
2019-01-16T12:26:46.465Z,73.88
2019-01-16T12:27:46.430Z,73.60
2019-01-16T12:28:46.428Z,73.50
2019-01-16T12:29:46.422Z,74.29
2019-01-16T12:30:46.401Z,74.08
2019-01-16T12:31:46.410Z,74.40
2019-01-16T12:32:46.374Z,73.36
2019-01-16T12:33:46.385Z,74.08
2019-01-16T12:34:46.403Z,73.91
2019-01-16T12:35:46.352Z,73.26
2019-01-16T12:36:46.360Z,73.40
2019-01-16T12:37:46.340Z,73.91
2019-01-16T12:38:46.307Z,72.99
2019-01-16T12:39:46.314Z,73.40
2019-01-16T12:40:46.308Z,73.36
2019-01-16T12:41:46.289Z,73.78
2019-01-16T12:42:46.280Z,73.36
2019-01-16T12:43:46.258Z,73.78
2019-01-16T12:44:46.244Z,73.57
2019-01-16T12:45:46.242Z,73.81
2019-01-16T12:46:46.254Z,73.91
2019-01-16T12:47:46.214Z,73.71
2019-01-16T12:48:46.206Z,72.88
2019-01-16T12:49:46.191Z,72.78
2019-01-16T12:50:46.174Z,73.60
2019-01-16T12:51:46.182Z,73.30
2019-01-16T12:52:46.161Z,72.99